Time;durP1;ratioP1;P1;durP2;ratioP2;P2;SDS_P1;SDS_P2;PMS_P1;PMS_P2;Temp;Humidity;BMP_temperature;BMP_pressure;BME280_temperature;BME280_humidity;BME280_pressure;Samples;Min_cycle;Max_cycle;Signal;HPM_P1;HPM_P2
2023/01/24 00:00:51;;;;;;;149.80;32.03;;;;;;;;;;5015702;28;20205;-49
2023/01/24 00:03:20;;;;;;;166.47;32.30;;;;;;;;;;5015965;28;20594;-47
2023/01/24 00:05:49;;;;;;;170.93;32.47;;;;;;;;;;5015413;28;20202;-47
2023/01/24 00:08:22;;;;;;;164.97;32.37;;;;;;;;;;5015840;28;20267;-48
2023/01/24 00:11:03;;;;;;;163.60;31.87;;;;;;;;;;5015251;28;20625;-46
2023/01/24 00:13:31;;;;;;;154.27;31.03;;;;;;;;;;5015740;28;20264;-48
2023/01/24 00:16:20;;;;;;;144.10;29.53;;;;;;;;;;5015165;28;20202;-48
2023/01/24 00:18:48;;;;;;;155.73;31.03;;;;;;;;;;5015122;28;20201;-48
2023/01/24 00:21:20;;;;;;;164.70;32.07;;;;;;;;;;5015817;28;20198;-49
2023/01/24 00:23:50;;;;;;;145.90;30.00;;;;;;;;;;5015397;28;20224;-48
2023/01/24 00:26:18;;;;;;;133.67;28.53;;;;;;;;;;5015311;28;20208;-49
2023/01/24 00:28:46;;;;;;;129.73;27.37;;;;;;;;;;5015167;28;20244;-49
2023/01/24 00:31:13;;;;;;;153.93;28.67;;;;;;;;;;5014977;28;20209;-47
2023/01/24 00:33:41;;;;;;;146.80;28.47;;;;;;;;;;5014980;28;20232;-47
2023/01/24 00:36:09;;;;;;;125.43;28.53;;;;;;;;;;5014392;28;20248;-48
2023/01/24 00:38:36;;;;;;;162.30;32.33;;;;;;;;;;5015030;28;20217;-47
2023/01/24 00:41:03;;;;;;;155.80;33.33;;;;;;;;;;5015023;28;20248;-47
2023/01/24 00:43:30;;;;;;;138.03;29.43;;;;;;;;;;5014063;28;20205;-47
2023/01/24 00:45:58;;;;;;;126.63;27.50;;;;;;;;;;5014235;28;20289;-47
2023/01/24 00:48:25;;;;;;;121.57;27.63;;;;;;;;;;5017549;28;20215;-48
2023/01/24 00:50:52;;;;;;;126.07;26.43;;;;;;;;;;5018320;28;20220;-47
2023/01/24 00:53:20;;;;;;;128.13;26.17;;;;;;;;;;5019403;28;20201;-47
2023/01/24 00:55:48;;;;;;;119.13;27.93;;;;;;;;;;5018885;28;20209;-47
2023/01/24 00:58:16;;;;;;;135.30;26.90;;;;;;;;;;5018024;28;20239;-50
2023/01/24 01:00:43;;;;;;;122.90;26.27;;;;;;;;;;5018720;28;20201;-47
2023/01/24 01:03:13;;;;;;;113.70;26.53;;;;;;;;;;5018151;28;20291;-48
2023/01/24 01:05:42;;;;;;;118.40;26.03;;;;;;;;;;5018952;28;20209;-47
2023/01/24 01:08:10;;;;;;;122.87;26.80;;;;;;;;;;5018042;28;20308;-47
2023/01/24 01:10:38;;;;;;;107.57;23.63;;;;;;;;;;5017806;28;20205;-48
2023/01/24 01:13:05;;;;;;;121.47;25.63;;;;;;;;;;5019144;28;20301;-50
2023/01/24 01:15:32;;;;;;;116.80;26.80;;;;;;;;;;5018723;28;20210;-47
2023/01/24 01:17:59;;;;;;;134.60;25.93;;;;;;;;;;5018368;28;20592;-48
2023/01/24 01:20:27;;;;;;;132.23;25.83;;;;;;;;;;5017797;28;20209;-47
2023/01/24 01:22:54;;;;;;;113.10;24.60;;;;;;;;;;5018449;28;20271;-49
2023/01/24 01:25:21;;;;;;;116.17;25.80;;;;;;;;;;5018492;28;20209;-47
2023/01/24 01:27:48;;;;;;;114.30;25.50;;;;;;;;;;5018651;28;20205;-49
2023/01/24 01:30:16;;;;;;;109.77;24.63;;;;;;;;;;5023634;28;20220;-49
2023/01/24 01:32:43;;;;;;;116.93;25.97;;;;;;;;;;4998914;28;20202;-48
2023/01/24 01:35:12;;;;;;;117.17;24.83;;;;;;;;;;4997664;28;20198;-47
2023/01/24 01:37:39;;;;;;;126.13;25.60;;;;;;;;;;4998577;28;20202;-47
2023/01/24 01:40:08;;;;;;;110.40;23.70;;;;;;;;;;4998093;28;20586;-47
2023/01/24 01:42:51;;;;;;;121.13;25.87;;;;;;;;;;4998694;28;20571;-48
2023/01/24 01:45:45;;;;;;;120.50;24.93;;;;;;;;;;4997426;28;20190;-48
2023/01/24 01:48:33;;;;;;;103.13;24.87;;;;;;;;;;4994167;28;20641;-48
2023/01/24 01:51:06;;;;;;;111.63;24.70;;;;;;;;;;4998801;28;20194;-47
2023/01/24 01:53:37;;;;;;;113.50;24.80;;;;;;;;;;4998190;28;20626;-48
2023/01/24 01:56:08;;;;;;;121.47;25.17;;;;;;;;;;4981681;28;20195;-47
2023/01/24 01:58:35;;;;;;;121.00;26.13;;;;;;;;;;5012678;28;20301;-47
2023/01/24 02:01:03;;;;;;;114.53;24.33;;;;;;;;;;5015398;28;20537;-47
2023/01/24 02:03:38;;;;;;;112.13;24.47;;;;;;;;;;5017917;28;20205;-47
2023/01/24 02:06:18;;;;;;;114.77;26.40;;;;;;;;;;5017118;28;20259;-47
2023/01/24 02:08:46;;;;;;;116.50;24.97;;;;;;;;;;5016903;28;20197;-48
2023/01/24 02:16:46;;;;;;;114.93;26.73;;;;;;;;;;5002960;28;20684;-48
2023/01/24 02:19:46;;;;;;;129.50;26.03;;;;;;;;;;5016365;28;20308;-48
2023/01/24 02:22:21;;;;;;;124.73;25.57;;;;;;;;;;5016867;28;20208;-48
2023/01/24 02:24:59;;;;;;;106.47;24.40;;;;;;;;;;5017378;28;20205;-48
2023/01/24 02:27:27;;;;;;;127.03;25.10;;;;;;;;;;5032695;28;20545;-49
2023/01/24 02:29:56;;;;;;;123.67;26.57;;;;;;;;;;5017038;28;20205;-47
2023/01/24 02:32:24;;;;;;;128.63;26.30;;;;;;;;;;5000129;28;20205;-49
2023/01/24 02:34:51;;;;;;;125.70;25.10;;;;;;;;;;5017293;28;20201;-47
2023/01/24 02:37:23;;;;;;;126.87;26.17;;;;;;;;;;5016449;28;20248;-48
2023/01/24 02:40:03;;;;;;;133.40;27.33;;;;;;;;;;5016059;28;20336;-48
2023/01/24 02:42:34;;;;;;;136.47;27.17;;;;;;;;;;5017109;28;20200;-47
2023/01/24 02:45:02;;;;;;;149.93;28.70;;;;;;;;;;5015945;28;20207;-47
2023/01/24 02:47:35;;;;;;;144.33;27.30;;;;;;;;;;5015512;28;20206;-47
2023/01/24 02:50:03;;;;;;;137.30;26.90;;;;;;;;;;5016127;28;20206;-47
2023/01/24 02:55:17;;;;;;;169.27;27.97;;;;;;;;;;5015845;28;20293;-48
2023/01/24 03:00:35;;;;;;;237.77;28.93;;;;;;;;;;5015868;28;20524;-47
2023/01/24 03:03:02;;;;;;;164.90;28.13;;;;;;;;;;4999892;28;20213;-48
2023/01/24 03:05:39;;;;;;;155.50;28.97;;;;;;;;;;5016249;28;20232;-48
2023/01/24 03:08:13;;;;;;;201.10;28.07;;;;;;;;;;5015840;28;20193;-47
2023/01/24 03:10:40;;;;;;;211.70;29.40;;;;;;;;;;5015958;28;20221;-49
2023/01/24 03:35:14;;;;;;;200.77;28.87;;;;;;;;;;4998565;28;20212;-50
2023/01/24 03:40:29;;;;;;;148.13;27.63;;;;;;;;;;5011510;28;20249;-48
2023/01/24 03:42:57;;;;;;;176.03;28.90;;;;;;;;;;5011854;28;20519;-47
2023/01/24 03:45:37;;;;;;;152.63;28.13;;;;;;;;;;4980341;28;20186;-50
2023/01/24 03:48:12;;;;;;;159.40;27.47;;;;;;;;;;5011880;28;20206;-50
2023/01/24 03:53:33;;;;;;;183.43;26.63;;;;;;;;;;4996443;28;20276;-48
2023/01/24 03:56:02;;;;;;;187.60;27.47;;;;;;;;;;4995239;28;20260;-48
2023/01/24 03:58:37;;;;;;;132.53;26.07;;;;;;;;;;5011679;28;20276;-49
2023/01/24 04:01:08;;;;;;;192.87;27.00;;;;;;;;;;4995344;28;20522;-47
2023/01/24 04:03:52;;;;;;;231.30;30.93;;;;;;;;;;5011519;28;20535;-49
2023/01/24 04:06:20;;;;;;;154.20;26.73;;;;;;;;;;4997978;28;20329;-48
2023/01/24 04:08:47;;;;;;;163.80;27.40;;;;;;;;;;5002624;28;20225;-47
2023/01/24 04:11:15;;;;;;;165.20;26.80;;;;;;;;;;4994757;28;20535;-47
2023/01/24 04:13:42;;;;;;;124.83;26.10;;;;;;;;;;4994805;28;20278;-47
2023/01/24 04:16:10;;;;;;;160.83;27.53;;;;;;;;;;4994713;28;20272;-47
2023/01/24 04:18:48;;;;;;;152.47;26.83;;;;;;;;;;5011294;28;20205;-47
2023/01/24 04:21:15;;;;;;;169.53;27.57;;;;;;;;;;5011078;28;20210;-48
2023/01/24 04:23:43;;;;;;;168.70;28.07;;;;;;;;;;4994466;28;20324;-48
2023/01/24 04:26:11;;;;;;;177.03;27.47;;;;;;;;;;4994784;28;20203;-47
2023/01/24 04:28:38;;;;;;;147.77;26.20;;;;;;;;;;4994497;28;20208;-47
2023/01/24 04:31:05;;;;;;;119.37;25.20;;;;;;;;;;5006322;28;20548;-49
2023/01/24 04:34:08;;;;;;;129.23;26.30;;;;;;;;;;5008353;28;20209;-48
2023/01/24 04:36:38;;;;;;;153.40;29.53;;;;;;;;;;5012337;28;20206;-48
2023/01/24 04:39:05;;;;;;;218.80;55.00;;;;;;;;;;5013706;28;20285;-51
2023/01/24 04:41:41;;;;;;;265.40;67.27;;;;;;;;;;5021987;28;20237;-52
2023/01/24 04:44:09;;;;;;;154.60;30.27;;;;;;;;;;5005700;28;20573;-47
2023/01/24 04:46:37;;;;;;;130.80;28.37;;;;;;;;;;5006308;28;20193;-51
2023/01/24 04:49:05;;;;;;;143.87;27.30;;;;;;;;;;5009853;28;20202;-51
2023/01/24 04:51:41;;;;;;;110.20;25.70;;;;;;;;;;5003132;28;20672;-50
2023/01/24 04:54:13;;;;;;;126.90;25.43;;;;;;;;;;4999564;28;20277;-51
2023/01/24 04:56:41;;;;;;;146.97;27.00;;;;;;;;;;4994583;28;20201;-48
2023/01/24 04:59:10;;;;;;;113.43;25.03;;;;;;;;;;5005766;28;20638;-49
2023/01/24 05:01:40;;;;;;;124.67;25.80;;;;;;;;;;5012384;28;20205;-48
2023/01/24 05:04:20;;;;;;;130.17;28.93;;;;;;;;;;5014539;28;20285;-50
2023/01/24 05:06:47;;;;;;;128.47;29.17;;;;;;;;;;5031188;28;20196;-48
2023/01/24 05:09:14;;;;;;;159.23;34.53;;;;;;;;;;5033857;28;20197;-48
2023/01/24 05:11:50;;;;;;;129.90;29.30;;;;;;;;;;5033917;28;20576;-47
2023/01/24 05:14:17;;;;;;;158.53;38.50;;;;;;;;;;5016591;28;20332;-49
2023/01/24 05:16:45;;;;;;;161.57;37.03;;;;;;;;;;5013740;28;20236;-46
2023/01/24 05:19:12;;;;;;;145.13;31.73;;;;;;;;;;5026453;28;20228;-47
2023/01/24 05:21:39;;;;;;;130.87;29.27;;;;;;;;;;5016844;28;20697;-49
2023/01/24 05:24:08;;;;;;;110.17;25.17;;;;;;;;;;5001398;28;20564;-48
2023/01/24 05:26:35;;;;;;;109.17;25.13;;;;;;;;;;5013606;28;20222;-47
2023/01/24 05:29:02;;;;;;;119.87;23.20;;;;;;;;;;5011771;28;20241;-47
2023/01/24 05:31:30;;;;;;;118.60;24.47;;;;;;;;;;5022098;28;20529;-48
2023/01/24 05:33:58;;;;;;;103.70;22.07;;;;;;;;;;4992374;28;20368;-49
2023/01/24 05:36:25;;;;;;;107.37;24.43;;;;;;;;;;4996057;28;20234;-51
2023/01/24 05:38:54;;;;;;;112.07;22.77;;;;;;;;;;4996342;28;20620;-48
2023/01/24 05:41:22;;;;;;;124.20;24.57;;;;;;;;;;5018335;28;20252;-49
2023/01/24 05:43:51;;;;;;;124.37;24.63;;;;;;;;;;5035759;28;20243;-47
2023/01/24 05:46:24;;;;;;;164.13;25.23;;;;;;;;;;5036090;28;20669;-49
2023/01/24 05:49:08;;;;;;;160.00;24.47;;;;;;;;;;5031727;28;20229;-48
2023/01/24 05:51:35;;;;;;;123.90;22.47;;;;;;;;;;5021028;28;20229;-47
2023/01/24 05:54:04;;;;;;;148.43;23.03;;;;;;;;;;5022960;28;20287;-48
2023/01/24 05:56:50;;;;;;;162.23;25.13;;;;;;;;;;5035642;28;20224;-50
2023/01/24 05:59:17;;;;;;;141.40;24.10;;;;;;;;;;5025976;28;20230;-48
2023/01/24 06:01:45;;;;;;;161.23;25.73;;;;;;;;;;4994370;28;20230;-50
2023/01/24 06:04:13;;;;;;;167.07;24.10;;;;;;;;;;4996221;28;20268;-48
2023/01/24 06:06:41;;;;;;;170.17;25.00;;;;;;;;;;4996090;28;20698;-47
2023/01/24 06:09:08;;;;;;;173.93;25.07;;;;;;;;;;4996810;28;20237;-49
2023/01/24 06:11:36;;;;;;;178.80;25.13;;;;;;;;;;4996124;28;20300;-48
2023/01/24 06:14:17;;;;;;;133.23;23.30;;;;;;;;;;5001840;28;20228;-48
2023/01/24 06:16:46;;;;;;;164.90;26.20;;;;;;;;;;5017655;28;20233;-48
2023/01/24 06:19:14;;;;;;;185.30;25.07;;;;;;;;;;4996203;28;20245;-48
2023/01/24 06:21:46;;;;;;;211.63;26.93;;;;;;;;;;4995817;28;20572;-53
2023/01/24 06:24:23;;;;;;;157.50;24.63;;;;;;;;;;4996204;28;20271;-50
2023/01/24 06:27:09;;;;;;;185.10;23.60;;;;;;;;;;4996485;28;20202;-49
2023/01/24 06:29:36;;;;;;;198.10;26.50;;;;;;;;;;4997264;28;20643;-47
2023/01/24 06:32:28;;;;;;;257.23;27.40;;;;;;;;;;4997235;28;20268;-47
2023/01/24 06:35:14;;;;;;;186.57;25.77;;;;;;;;;;4996477;28;20202;-49
2023/01/24 06:38:00;;;;;;;190.67;27.93;;;;;;;;;;4997237;28;20206;-47
2023/01/24 06:40:27;;;;;;;174.13;27.33;;;;;;;;;;4997036;28;20248;-47
2023/01/24 06:42:55;;;;;;;200.00;28.63;;;;;;;;;;4997254;28;20228;-47
2023/01/24 06:45:22;;;;;;;189.00;25.53;;;;;;;;;;4996643;28;20634;-47
2023/01/24 06:47:50;;;;;;;165.87;23.87;;;;;;;;;;4996966;28;20588;-47
2023/01/24 06:50:20;;;;;;;184.30;27.53;;;;;;;;;;4996911;28;20709;-51
2023/01/24 06:52:48;;;;;;;159.80;24.43;;;;;;;;;;4997090;28;20221;-50
2023/01/24 06:55:15;;;;;;;133.43;24.93;;;;;;;;;;4997298;28;20206;-48
2023/01/24 06:57:43;;;;;;;141.97;27.07;;;;;;;;;;4996945;28;20217;-47
2023/01/24 07:00:11;;;;;;;133.60;24.53;;;;;;;;;;4997068;28;20388;-49
2023/01/24 07:02:38;;;;;;;141.97;27.70;;;;;;;;;;4996963;28;20202;-49
2023/01/24 07:05:05;;;;;;;137.53;26.70;;;;;;;;;;4997362;28;20209;-56
2023/01/24 07:07:33;;;;;;;134.23;26.10;;;;;;;;;;5015830;28;20217;-51
2023/01/24 07:10:00;;;;;;;145.83;26.03;;;;;;;;;;5016333;28;20209;-51
2023/01/24 07:12:27;;;;;;;150.53;26.13;;;;;;;;;;5016374;28;20228;-50
2023/01/24 07:14:54;;;;;;;154.60;27.97;;;;;;;;;;5016234;28;20197;-50
2023/01/24 07:17:21;;;;;;;127.40;25.73;;;;;;;;;;5016230;28;20268;-50
2023/01/24 07:19:49;;;;;;;155.93;27.43;;;;;;;;;;5014880;28;20292;-51
2023/01/24 07:22:16;;;;;;;140.47;28.47;;;;;;;;;;5010962;28;20201;-51
2023/01/24 07:24:44;;;;;;;141.00;25.00;;;;;;;;;;5016028;28;20198;-50
2023/01/24 07:27:12;;;;;;;159.70;24.53;;;;;;;;;;5015378;28;20212;-51
2023/01/24 07:29:39;;;;;;;175.50;22.57;;;;;;;;;;5015724;28;20650;-49
2023/01/24 07:32:09;;;;;;;128.13;21.33;;;;;;;;;;5015983;28;20201;-49
2023/01/24 07:34:36;;;;;;;118.03;22.40;;;;;;;;;;5015956;28;20280;-51
2023/01/24 07:37:06;;;;;;;165.77;25.03;;;;;;;;;;5015570;28;20201;-49
2023/01/24 07:39:33;;;;;;;128.30;24.10;;;;;;;;;;5015385;28;20207;-49
2023/01/24 07:42:01;;;;;;;137.80;22.90;;;;;;;;;;5015432;28;20678;-52
2023/01/24 07:44:28;;;;;;;141.50;24.30;;;;;;;;;;5015058;28;20201;-49
2023/01/24 07:46:55;;;;;;;127.23;22.47;;;;;;;;;;5015437;28;20205;-51
2023/01/24 07:49:22;;;;;;;140.00;24.97;;;;;;;;;;5015290;28;20233;-48
2023/01/24 07:51:50;;;;;;;137.30;25.87;;;;;;;;;;5015356;28;20259;-47
2023/01/24 07:54:19;;;;;;;129.80;24.93;;;;;;;;;;5015221;28;20264;-51
2023/01/24 07:56:47;;;;;;;182.57;28.73;;;;;;;;;;5015038;28;20397;-49
2023/01/24 07:59:15;;;;;;;189.43;23.87;;;;;;;;;;5015489;28;20224;-53
2023/01/24 08:01:42;;;;;;;175.33;22.73;;;;;;;;;;5015508;28;20232;-55
2023/01/24 08:04:09;;;;;;;139.63;26.43;;;;;;;;;;5015110;28;20746;-53
2023/01/24 08:06:39;;;;;;;120.13;24.47;;;;;;;;;;5015183;28;20205;-53
2023/01/24 08:09:06;;;;;;;124.93;24.27;;;;;;;;;;5015299;28;20276;-54
2023/01/24 08:11:33;;;;;;;143.57;24.47;;;;;;;;;;5015402;28;20205;-49
2023/01/24 08:14:00;;;;;;;136.13;24.50;;;;;;;;;;5014831;28;20205;-48
2023/01/24 08:16:27;;;;;;;153.90;24.87;;;;;;;;;;5015151;28;20227;-48
2023/01/24 08:18:55;;;;;;;128.10;25.10;;;;;;;;;;5015268;28;20209;-48
2023/01/24 08:21:22;;;;;;;139.77;28.70;;;;;;;;;;5014680;28;20674;-49
2023/01/24 08:23:49;;;;;;;138.40;25.77;;;;;;;;;;5015029;28;20205;-48
2023/01/24 08:26:16;;;;;;;133.50;27.53;;;;;;;;;;5012794;28;20197;-54
2023/01/24 08:28:43;;;;;;;137.07;26.73;;;;;;;;;;5014990;28;20271;-53
2023/01/24 08:31:10;;;;;;;135.07;27.33;;;;;;;;;;5014631;28;20209;-54
2023/01/24 08:33:38;;;;;;;144.23;29.80;;;;;;;;;;5014928;28;20219;-52
2023/01/24 08:36:06;;;;;;;156.47;33.37;;;;;;;;;;5014114;28;20205;-52
2023/01/24 08:38:33;;;;;;;134.87;28.27;;;;;;;;;;5010688;28;20237;-57
2023/01/24 08:41:04;;;;;;;121.10;24.77;;;;;;;;;;5013609;28;20295;-51
2023/01/24 08:43:34;;;;;;;101.03;22.93;;;;;;;;;;5013820;28;20287;-55
2023/01/24 08:46:02;;;;;;;101.37;20.80;;;;;;;;;;5007284;28;20237;-49
2023/01/24 08:48:29;;;;;;;94.87;20.83;;;;;;;;;;5001976;28;20235;-54
2023/01/24 08:50:56;;;;;;;118.80;24.60;;;;;;;;;;5010168;28;20228;-53
2023/01/24 08:53:23;;;;;;;103.27;21.20;;;;;;;;;;5013897;28;20233;-58
2023/01/24 08:55:51;;;;;;;107.47;20.87;;;;;;;;;;4995295;28;20238;-52
2023/01/24 08:58:18;;;;;;;109.27;21.90;;;;;;;;;;4994972;28;20643;-52
2023/01/24 09:00:45;;;;;;;132.13;24.23;;;;;;;;;;5005153;28;20536;-55
2023/01/24 09:03:16;;;;;;;140.20;31.97;;;;;;;;;;5014493;28;20201;-51
2023/01/24 09:05:44;;;;;;;150.80;26.37;;;;;;;;;;5014747;28;20197;-52
2023/01/24 09:08:11;;;;;;;130.17;24.90;;;;;;;;;;5015780;28;20527;-55
2023/01/24 09:10:39;;;;;;;127.10;23.67;;;;;;;;;;5033698;28;20216;-54
2023/01/24 09:13:07;;;;;;;110.23;22.73;;;;;;;;;;5018349;28;20630;-53
2023/01/24 09:15:34;;;;;;;97.30;22.37;;;;;;;;;;5018505;28;20263;-55
2023/01/24 09:18:04;;;;;;;113.23;22.50;;;;;;;;;;5033989;28;20216;-52
2023/01/24 09:20:31;;;;;;;93.83;19.60;;;;;;;;;;5018717;28;20544;-55
2023/01/24 09:22:58;;;;;;;110.87;23.07;;;;;;;;;;5018462;28;20276;-55
2023/01/24 09:25:26;;;;;;;109.00;21.83;;;;;;;;;;5018248;28;20228;-50
2023/01/24 09:27:54;;;;;;;119.27;23.40;;;;;;;;;;5018442;28;20201;-54
2023/01/24 09:30:22;;;;;;;105.23;23.17;;;;;;;;;;5018295;28;20197;-51
2023/01/24 09:32:50;;;;;;;93.70;21.57;;;;;;;;;;5018255;28;20236;-54
2023/01/24 09:35:17;;;;;;;121.10;23.40;;;;;;;;;;5017912;28;20197;-55
2023/01/24 09:37:44;;;;;;;112.40;24.23;;;;;;;;;;5017877;28;20279;-54
2023/01/24 09:40:25;;;;;;;100.03;23.13;;;;;;;;;;5017891;28;20225;-52
2023/01/24 09:42:55;;;;;;;108.30;22.10;;;;;;;;;;5017339;28;20213;-56
2023/01/24 09:45:28;;;;;;;111.43;24.43;;;;;;;;;;5017678;28;20193;-54
2023/01/24 09:47:59;;;;;;;113.57;25.47;;;;;;;;;;5017775;28;20217;-53
2023/01/24 09:50:51;;;;;;;112.93;23.93;;;;;;;;;;5016963;28;20538;-53
2023/01/24 09:53:23;;;;;;;130.73;27.80;;;;;;;;;;5016781;28;20205;-53
2023/01/24 09:55:52;;;;;;;132.67;26.03;;;;;;;;;;5017736;28;20194;-53
2023/01/24 09:58:39;;;;;;;117.40;25.20;;;;;;;;;;5017005;28;20209;-52
2023/01/24 10:01:14;;;;;;;112.37;25.73;;;;;;;;;;5017126;28;20209;-55
2023/01/24 10:03:42;;;;;;;111.10;24.43;;;;;;;;;;5016440;28;20568;-55
2023/01/24 10:06:15;;;;;;;115.37;25.47;;;;;;;;;;5017483;28;20228;-53
2023/01/24 10:08:58;;;;;;;114.80;26.23;;;;;;;;;;5016510;28;20265;-54
2023/01/24 10:12:15;;;;;;;124.90;27.47;;;;;;;;;;5017150;28;20619;-56
2023/01/24 10:15:06;;;;;;;124.77;25.47;;;;;;;;;;4995771;28;20206;-55
2023/01/24 10:17:42;;;;;;;126.50;30.73;;;;;;;;;;4995985;28;20539;-55
2023/01/24 10:20:31;;;;;;;122.53;27.00;;;;;;;;;;4993710;28;20191;-54
2023/01/24 10:23:06;;;;;;;120.47;27.33;;;;;;;;;;4996091;28;20228;-55
2023/01/24 10:25:38;;;;;;;110.57;26.60;;;;;;;;;;4979626;28;20232;-51
2023/01/24 10:28:16;;;;;;;121.20;26.93;;;;;;;;;;4995838;28;20198;-52
2023/01/24 10:30:43;;;;;;;113.13;27.67;;;;;;;;;;4979905;28;20285;-51
2023/01/24 10:33:16;;;;;;;143.27;32.67;;;;;;;;;;4995615;28;20221;-55
2023/01/24 10:35:47;;;;;;;123.10;29.87;;;;;;;;;;4990161;28;20675;-49
2023/01/24 10:38:17;;;;;;;114.13;27.17;;;;;;;;;;4994371;28;20268;-49
2023/01/24 10:40:55;;;;;;;106.90;25.87;;;;;;;;;;4993934;28;20329;-54
2023/01/24 10:43:25;;;;;;;93.93;24.83;;;;;;;;;;4984766;28;20248;-54
2023/01/24 10:46:37;;;;;;;91.23;23.27;;;;;;;;;;4993719;28;20316;-54
2023/01/24 10:49:07;;;;;;;99.10;23.87;;;;;;;;;;4947346;28;20233;-54
2023/01/24 10:51:34;;;;;;;94.90;21.87;;;;;;;;;;5004694;28;20236;-53
2023/01/24 10:54:02;;;;;;;110.53;24.57;;;;;;;;;;5015923;28;20276;-52
2023/01/24 10:56:29;;;;;;;105.67;24.07;;;;;;;;;;5015639;28;20233;-50
2023/01/24 10:59:07;;;;;;;93.30;21.10;;;;;;;;;;5015936;28;20291;-54
2023/01/24 11:01:40;;;;;;;91.00;22.10;;;;;;;;;;5030889;28;20240;-53
2023/01/24 11:04:19;;;;;;;97.10;23.03;;;;;;;;;;5015019;28;20229;-51
2023/01/24 11:06:48;;;;;;;104.40;23.17;;;;;;;;;;5015355;28;20243;-48
2023/01/24 11:09:27;;;;;;;101.07;23.23;;;;;;;;;;5015337;28;20229;-51
2023/01/24 11:11:55;;;;;;;95.43;21.90;;;;;;;;;;5015454;28;20229;-54
2023/01/24 11:14:25;;;;;;;84.93;21.40;;;;;;;;;;5014908;28;20299;-54
2023/01/24 11:16:58;;;;;;;96.37;23.40;;;;;;;;;;5013951;28;20225;-54
2023/01/24 11:19:31;;;;;;;111.40;23.63;;;;;;;;;;5014263;28;20284;-50
2023/01/24 11:22:00;;;;;;;99.47;24.03;;;;;;;;;;5013726;28;20247;-51
2023/01/24 11:24:28;;;;;;;99.57;23.90;;;;;;;;;;5014657;28;20292;-54
2023/01/24 11:26:57;;;;;;;98.43;24.00;;;;;;;;;;5014197;28;20316;-52
2023/01/24 11:29:24;;;;;;;124.13;28.10;;;;;;;;;;5015021;28;20605;-56
2023/01/24 11:31:54;;;;;;;122.07;28.87;;;;;;;;;;5029082;28;20236;-55
2023/01/24 11:34:36;;;;;;;131.90;30.47;;;;;;;;;;5013874;28;20245;-52
2023/01/24 11:37:18;;;;;;;128.67;28.27;;;;;;;;;;5030263;28;20287;-55
2023/01/24 11:40:03;;;;;;;130.10;28.83;;;;;;;;;;5014916;28;20248;-56
2023/01/24 11:42:41;;;;;;;136.27;28.97;;;;;;;;;;5014639;28;20332;-54
2023/01/24 11:45:50;;;;;;;136.37;29.20;;;;;;;;;;5010134;28;20225;-55
2023/01/24 11:48:33;;;;;;;166.50;40.60;;;;;;;;;;5003832;28;20225;-53
2023/01/24 11:51:13;;;;;;;122.37;30.13;;;;;;;;;;5013505;28;20224;-51
2023/01/24 11:54:02;;;;;;;112.63;28.00;;;;;;;;;;5013984;28;20253;-49
2023/01/24 11:56:52;;;;;;;109.43;25.23;;;;;;;;;;5014806;28;20238;-49
2023/01/24 11:59:34;;;;;;;111.13;29.03;;;;;;;;;;5014787;28;20260;-51
2023/01/24 12:02:32;;;;;;;122.67;31.93;;;;;;;;;;5014762;28;20256;-48
2023/01/24 12:05:17;;;;;;;110.17;29.93;;;;;;;;;;5014087;28;20701;-48
2023/01/24 12:08:11;;;;;;;98.27;28.37;;;;;;;;;;5011643;28;20494;-49
2023/01/24 12:11:01;;;;;;;111.40;30.07;;;;;;;;;;4998691;28;20197;-50
2023/01/24 12:14:07;;;;;;;94.73;26.07;;;;;;;;;;5014724;28;20197;-51
2023/01/24 12:16:34;;;;;;;98.47;26.63;;;;;;;;;;5014234;28;20239;-52
2023/01/24 12:19:25;;;;;;;106.87;30.53;;;;;;;;;;5015061;28;20697;-51
2023/01/24 12:21:56;;;;;;;114.10;30.20;;;;;;;;;;5015282;28;20232;-55
2023/01/24 12:24:31;;;;;;;112.30;32.60;;;;;;;;;;5014643;28;20194;-54
2023/01/24 12:27:03;;;;;;;116.73;32.60;;;;;;;;;;5014547;28;20197;-54
2023/01/24 12:29:33;;;;;;;128.83;33.33;;;;;;;;;;5014576;28;20263;-50
2023/01/24 12:32:05;;;;;;;123.57;31.83;;;;;;;;;;5014819;28;20605;-49
2023/01/24 12:34:58;;;;;;;114.63;32.23;;;;;;;;;;5030775;28;20190;-49
2023/01/24 12:37:27;;;;;;;104.53;29.40;;;;;;;;;;5014422;28;20538;-50
2023/01/24 12:40:05;;;;;;;100.17;29.13;;;;;;;;;;5016522;28;20295;-52
2023/01/24 12:42:40;;;;;;;74.90;24.53;;;;;;;;;;5030196;28;20307;-49
2023/01/24 12:45:14;;;;;;;81.43;26.40;;;;;;;;;;5014942;28;20212;-52
2023/01/24 12:47:48;;;;;;;85.47;27.83;;;;;;;;;;5014209;28;20209;-49
2023/01/24 12:50:30;;;;;;;92.67;27.70;;;;;;;;;;5015463;28;20193;-48
2023/01/24 12:53:15;;;;;;;84.23;25.93;;;;;;;;;;5030909;28;20548;-49
2023/01/24 12:55:54;;;;;;;90.17;25.90;;;;;;;;;;5015343;28;20190;-51
2023/01/24 12:58:48;;;;;;;101.00;27.97;;;;;;;;;;5014015;28;20305;-49
2023/01/24 13:01:15;;;;;;;88.60;25.60;;;;;;;;;;5013698;28;20213;-50
2023/01/24 13:04:13;;;;;;;91.87;27.80;;;;;;;;;;5015373;28;20202;-47
2023/01/24 13:07:16;;;;;;;90.77;26.27;;;;;;;;;;5014716;28;20204;-48
2023/01/24 13:10:05;;;;;;;73.03;23.50;;;;;;;;;;5001048;28;20686;-50
2023/01/24 13:12:33;;;;;;;90.53;25.70;;;;;;;;;;5011913;28;20299;-47
2023/01/24 13:15:05;;;;;;;75.80;25.33;;;;;;;;;;5013568;28;20221;-49
2023/01/24 13:17:39;;;;;;;79.77;25.20;;;;;;;;;;4986806;28;20226;-48
2023/01/24 13:20:40;;;;;;;85.10;27.37;;;;;;;;;;5012533;28;20226;-47
2023/01/24 13:23:37;;;;;;;82.63;25.90;;;;;;;;;;4992067;28;20238;-47
2023/01/24 13:26:42;;;;;;;67.60;25.70;;;;;;;;;;4975824;28;20257;-49
2023/01/24 13:29:26;;;;;;;74.30;25.47;;;;;;;;;;4992478;28;20607;-53
2023/01/24 13:32:06;;;;;;;72.13;25.10;;;;;;;;;;4992499;28;20234;-48
2023/01/24 13:34:37;;;;;;;67.03;22.73;;;;;;;;;;4992314;28;20238;-48
2023/01/24 13:37:05;;;;;;;55.80;19.97;;;;;;;;;;4992451;28;20234;-48
2023/01/24 13:39:42;;;;;;;49.10;19.30;;;;;;;;;;4991867;28;20230;-48
2023/01/24 13:42:11;;;;;;;55.87;18.60;;;;;;;;;;4992256;28;20325;-50
2023/01/24 13:44:39;;;;;;;56.30;19.63;;;;;;;;;;4992838;28;20230;-50
2023/01/24 13:47:09;;;;;;;49.83;18.33;;;;;;;;;;4990302;28;20232;-48
2023/01/24 13:49:44;;;;;;;54.63;19.00;;;;;;;;;;4992506;28;20230;-49
2023/01/24 13:52:36;;;;;;;52.33;19.67;;;;;;;;;;4991830;28;20253;-48
2023/01/24 13:55:24;;;;;;;48.53;17.67;;;;;;;;;;4987321;28;20234;-54
2023/01/24 13:58:13;;;;;;;51.33;20.23;;;;;;;;;;4983162;28;20226;-50
2023/01/24 14:00:51;;;;;;;46.83;18.30;;;;;;;;;;5016153;28;20240;-50
2023/01/24 14:03:32;;;;;;;48.80;19.20;;;;;;;;;;5017343;28;20237;-52
2023/01/24 14:05:59;;;;;;;48.30;20.13;;;;;;;;;;5016620;28;20695;-49
2023/01/24 14:08:26;;;;;;;56.40;22.60;;;;;;;;;;5016357;28;20225;-51
2023/01/24 14:10:56;;;;;;;60.70;23.80;;;;;;;;;;5016773;28;20240;-53
2023/01/24 14:13:41;;;;;;;46.80;20.53;;;;;;;;;;5016815;28;20233;-46
2023/01/24 14:16:22;;;;;;;45.33;16.70;;;;;;;;;;5015732;28;20549;-49
2023/01/24 14:19:12;;;;;;;40.67;16.97;;;;;;;;;;5016669;28;20577;-54
2023/01/24 14:22:00;;;;;;;35.30;15.93;;;;;;;;;;5016791;28;20244;-54
2023/01/24 14:24:32;;;;;;;33.03;15.03;;;;;;;;;;5031224;28;20573;-49
2023/01/24 14:27:13;;;;;;;38.63;16.37;;;;;;;;;;5016201;28;20295;-50
2023/01/24 14:29:41;;;;;;;39.57;16.73;;;;;;;;;;5015955;28;20577;-48
2023/01/24 14:32:39;;;;;;;40.77;17.40;;;;;;;;;;5016258;28;20225;-47
2023/01/24 14:35:15;;;;;;;38.50;16.37;;;;;;;;;;4975454;28;20241;-47
2023/01/24 14:37:44;;;;;;;42.70;17.47;;;;;;;;;;4974886;28;20397;-47
2023/01/24 14:40:17;;;;;;;44.70;18.83;;;;;;;;;;4958643;28;20278;-47
2023/01/24 14:42:44;;;;;;;35.70;16.00;;;;;;;;;;4961621;28;20242;-48
2023/01/24 14:45:17;;;;;;;38.37;16.40;;;;;;;;;;4970618;28;20237;-58
2023/01/24 14:47:54;;;;;;;34.97;16.67;;;;;;;;;;4959442;28;20297;-47
2023/01/24 14:50:33;;;;;;;41.27;17.47;;;;;;;;;;4943751;28;20226;-48
2023/01/24 14:53:02;;;;;;;49.43;22.80;;;;;;;;;;4974834;28;20652;-50
2023/01/24 14:55:33;;;;;;;35.53;17.20;;;;;;;;;;4959097;28;20680;-50
2023/01/24 14:58:14;;;;;;;35.00;16.97;;;;;;;;;;4973003;28;20223;-56
2023/01/24 15:00:41;;;;;;;35.10;16.13;;;;;;;;;;4970679;28;20683;-54
2023/01/24 15:03:15;;;;;;;35.57;16.70;;;;;;;;;;4974074;28;20238;-47
2023/01/24 15:05:49;;;;;;;43.53;18.60;;;;;;;;;;4975361;28;20743;-47
2023/01/24 15:08:17;;;;;;;40.60;18.13;;;;;;;;;;4980148;28;20225;-47
2023/01/24 15:10:44;;;;;;;37.37;16.33;;;;;;;;;;4990847;28;20587;-48
2023/01/24 15:13:24;;;;;;;42.47;17.83;;;;;;;;;;5015485;28;20229;-49
2023/01/24 15:15:52;;;;;;;32.33;15.93;;;;;;;;;;5015208;28;20620;-49
2023/01/24 15:18:26;;;;;;;31.50;16.13;;;;;;;;;;5015875;28;20225;-47